メインページ
METAR-TAF:

METAR-TAF

空港 :

Bella Bella, ブリティッシュコロンビア州, カナダ

緯度: 52-11-06N, 経度: 128-09-24W, 海抜: 43m

現時点の気象観測

当レポートは18分前の08:30(UTC)に作成
無風
気温 15°C
湿度 94%
気圧 1017 hPa
視程: 14.5km
高度700ftの雲は散在している
高度1200ftの曇り

METAR: CBBC 030830Z AUTO 00000KT 9SM SCT007 OVC012 15/14 A3004 RMK SLP173

時間: 01:48 (08:48 UTC)

予報

当レポートは8時間10分前の00:38(UTC)に作成
予報は03日の 01時(UTC)から 03日の 05時(UTC)まで有効
変向風 3kt
視程: 9.7km
高度500ftの雲は散在している
高度2500ftの千切れ雲あり
高度3000ftの曇り
小雨
03日の 01時(UTC)から 03日の 05時(UTC)まで一時的に
視程: 8.0km
高度500ftの千切れ雲あり
高度1200ftの千切れ雲あり
高度2000ftの曇り
小雨, 靄

TAF: CBBC 030038Z 0301/0305 VRB03KT 6SM -RA SCT005 BKN025 OVC030 TEMPO 0301/0305 5SM -RA BR BKN005 BKN012 OVC020 RMK FCST BASED ON AUTO OBS. NXT FCST WILL BE ISSUED AT 031245Z

4,000以上の空港の気象観測と天気予報(METAR報とTAF報)

利用可能な観測所は地図上に黄色い丸と赤い丸で示す。

丸の上にカーソルを重ねると観測所名を参照できる。

次にクリックすると気象観測と天気予報を参照できる。

マップの切り替え:黒色「×」印の緑ボタンをクリックして拡大、「-」印の緑ボタンをクリックして縮小、緑色の三角印をクリックして隣りの地図に切り替え


METAR-TAF: